createdAt,value
2022-08-17T00:00:44.062Z,3.70
2022-08-17T00:03:13.611Z,4.23
2022-08-17T00:05:47.018Z,4.23
2022-08-17T00:08:17.365Z,4.07
2022-08-17T00:10:48.077Z,3.87
2022-08-17T00:13:20.485Z,4.20
2022-08-17T00:15:49.225Z,4.63
2022-08-17T00:19:01.269Z,4.73
2022-08-17T00:21:11.490Z,4.83
2022-08-17T00:23:47.777Z,5.03
2022-08-17T00:26:43.464Z,4.70
2022-08-17T00:29:08.973Z,4.97
2022-08-17T00:31:37.750Z,4.90
2022-08-17T00:34:08.851Z,5.40
2022-08-17T00:36:37.622Z,4.80
2022-08-17T00:39:06.615Z,5.07
2022-08-17T00:41:36.269Z,5.27
2022-08-17T00:44:12.594Z,5.27
2022-08-17T00:46:42.904Z,4.93
2022-08-17T00:49:13.777Z,4.87
2022-08-17T00:51:45.582Z,4.97
2022-08-17T00:54:16.996Z,5.37
2022-08-17T00:56:51.969Z,5.57
2022-08-17T00:59:24.382Z,5.00
2022-08-17T01:01:53.459Z,5.23
2022-08-17T01:04:23.668Z,5.67
2022-08-17T01:06:53.031Z,4.97
2022-08-17T01:09:22.697Z,5.27
2022-08-17T01:11:53.147Z,4.87
2022-08-17T01:14:22.985Z,5.30
2022-08-17T01:16:54.191Z,4.93
2022-08-17T01:19:25.559Z,5.03
2022-08-17T01:21:59.934Z,5.23
2022-08-17T01:24:29.946Z,5.63
2022-08-17T01:26:58.159Z,5.10
2022-08-17T01:29:30.963Z,5.87
2022-08-17T01:32:03.706Z,5.40
2022-08-17T01:34:42.798Z,5.63
2022-08-17T01:37:19.008Z,5.10
2022-08-17T01:39:51.630Z,5.50
2022-08-17T01:42:24.902Z,4.90
2022-08-17T01:44:56.898Z,5.33
2022-08-17T01:47:25.348Z,5.33
2022-08-17T01:49:53.726Z,5.70
2022-08-17T01:52:23.938Z,5.87
2022-08-17T01:54:54.689Z,5.63
2022-08-17T01:57:22.883Z,5.80
2022-08-17T01:59:51.250Z,5.97
2022-08-17T02:02:30.351Z,5.83
2022-08-17T02:04:59.801Z,5.70
2022-08-17T02:07:59.955Z,5.97
2022-08-17T02:10:26.518Z,5.87
2022-08-17T02:13:03.792Z,5.47
2022-08-17T02:15:32.256Z,6.53
2022-08-17T02:18:00.787Z,6.20
2022-08-17T02:20:41.226Z,6.50
2022-08-17T02:23:13.110Z,6.13
2022-08-17T02:25:45.395Z,6.50
2022-08-17T02:28:15.800Z,5.90
2022-08-17T02:31:00.766Z,6.73
2022-08-17T02:33:42.911Z,6.20
2022-08-17T02:36:13.989Z,6.17
2022-08-17T02:38:43.426Z,6.40
2022-08-17T02:41:13.557Z,6.10
2022-08-17T02:43:42.011Z,6.20
2022-08-17T02:46:11.463Z,6.47
2022-08-17T02:48:40.009Z,6.70
2022-08-17T02:51:09.247Z,5.90
2022-08-17T02:53:37.544Z,6.43
2022-08-17T02:56:06.033Z,6.60
2022-08-17T02:58:36.141Z,6.80
2022-08-17T03:01:06.304Z,6.10
2022-08-17T03:03:35.440Z,6.70
2022-08-17T03:06:04.215Z,6.90
2022-08-17T03:08:32.967Z,6.70
2022-08-17T03:11:01.202Z,6.33
2022-08-17T03:13:30.933Z,7.23
2022-08-17T03:16:05.398Z,6.93
2022-08-17T03:18:33.518Z,6.50
2022-08-17T03:21:04.541Z,6.67
2022-08-17T03:23:33.901Z,6.83
2022-08-17T03:26:02.590Z,6.63
2022-08-17T03:28:30.806Z,6.43
2022-08-17T03:30:59.133Z,6.00
2022-08-17T03:33:28.737Z,6.47
2022-08-17T03:35:57.258Z,6.67
2022-08-17T03:38:25.847Z,6.80
2022-08-17T03:40:59.431Z,7.00
2022-08-17T03:43:32.861Z,6.57
2022-08-17T03:46:34.723Z,6.97
2022-08-17T03:49:23.458Z,6.63
2022-08-17T03:52:08.955Z,6.90
2022-08-17T03:54:54.496Z,7.60
2022-08-17T03:57:22.722Z,7.53
2022-08-17T03:59:51.144Z,7.10
2022-08-17T04:02:23.186Z,7.00
2022-08-17T04:04:54.456Z,7.23
2022-08-17T04:07:25.187Z,6.73
2022-08-17T04:09:53.531Z,8.33
2022-08-17T04:12:24.825Z,6.57
2022-08-17T04:14:54.964Z,10.60
2022-08-17T04:17:26.178Z,8.27
2022-08-17T04:19:56.991Z,6.87
2022-08-17T04:22:32.897Z,7.10
2022-08-17T04:25:16.756Z,6.87
2022-08-17T04:27:45.160Z,7.87
2022-08-17T04:30:14.913Z,7.80
2022-08-17T04:33:06.075Z,7.97
2022-08-17T04:35:39.827Z,7.30
2022-08-17T04:38:09.490Z,6.50
2022-08-17T04:40:55.369Z,7.50
2022-08-17T04:43:26.293Z,6.47
2022-08-17T04:45:57.723Z,7.67
2022-08-17T04:48:35.314Z,8.23
2022-08-17T04:51:08.357Z,7.90
2022-08-17T04:53:36.884Z,8.77
2022-08-17T04:56:05.931Z,7.87
2022-08-17T04:58:34.649Z,7.90
2022-08-17T05:01:02.917Z,8.43
2022-08-17T05:03:32.034Z,7.50
2022-08-17T05:06:00.419Z,7.87
2022-08-17T05:08:30.151Z,7.72
2022-08-17T05:10:58.390Z,7.82
2022-08-17T05:13:29.873Z,7.45
2022-08-17T05:16:01.360Z,7.75
2022-08-17T05:18:30.676Z,7.77
2022-08-17T05:20:58.952Z,7.17
2022-08-17T05:23:42.041Z,7.37
2022-08-17T05:26:25.516Z,7.73
2022-08-17T05:28:57.208Z,8.13
2022-08-17T05:31:29.008Z,8.57
2022-08-17T05:33:57.481Z,8.20
2022-08-17T05:36:42.446Z,7.40
2022-08-17T05:39:17.239Z,7.90
2022-08-17T05:41:48.600Z,7.70
2022-08-17T05:44:17.585Z,7.27
2022-08-17T05:46:50.271Z,7.63
2022-08-17T05:49:25.824Z,7.63
2022-08-17T05:52:20.871Z,9.27
2022-08-17T05:55:07.122Z,7.97
2022-08-17T05:57:53.580Z,8.27
2022-08-17T06:00:30.914Z,8.63
2022-08-17T06:03:17.180Z,8.57
2022-08-17T06:05:56.123Z,8.83
2022-08-17T06:08:47.984Z,7.57
2022-08-17T06:11:35.271Z,8.30
2022-08-17T06:14:21.489Z,9.23
2022-08-17T06:16:56.356Z,9.63
2022-08-17T06:19:32.949Z,8.57
2022-08-17T06:22:06.169Z,8.73
2022-08-17T06:24:43.715Z,8.50
2022-08-17T06:27:20.455Z,8.23
2022-08-17T06:29:57.270Z,7.93
2022-08-17T06:32:27.213Z,8.10
2022-08-17T06:34:58.668Z,8.13
2022-08-17T06:37:43.964Z,7.33
2022-08-17T06:40:23.392Z,8.07
2022-08-17T06:43:06.451Z,8.10
2022-08-17T06:45:40.370Z,8.23
2022-08-17T06:48:14.281Z,7.90
2022-08-17T06:51:04.635Z,8.60
2022-08-17T06:53:40.252Z,7.57
2022-08-17T06:56:54.105Z,7.93
2022-08-17T06:59:25.250Z,7.07
2022-08-17T07:01:56.643Z,7.87
2022-08-17T07:04:30.167Z,7.23
2022-08-17T07:07:24.480Z,6.57
2022-08-17T07:09:56.263Z,6.60
2022-08-17T07:12:27.947Z,7.33
2022-08-17T07:15:05.552Z,6.00
2022-08-17T07:17:46.676Z,6.47
2022-08-17T07:20:20.671Z,20.33
2022-08-17T07:23:00.191Z,6.23
2022-08-17T07:25:30.769Z,6.50
2022-08-17T07:28:05.987Z,6.57
2022-08-17T07:30:47.425Z,6.80
2022-08-17T07:33:20.470Z,7.00
2022-08-17T07:35:52.355Z,6.03
2022-08-17T07:38:25.185Z,5.83
2022-08-17T07:41:04.732Z,5.80
2022-08-17T07:43:39.737Z,6.27
2022-08-17T07:46:35.608Z,5.33
2022-08-17T07:49:35.054Z,6.03
2022-08-17T07:52:26.077Z,5.40
2022-08-17T07:54:56.225Z,6.17
2022-08-17T07:57:37.534Z,6.77
2022-08-17T08:00:32.422Z,7.30
2022-08-17T08:03:27.208Z,5.93
2022-08-17T08:06:00.318Z,6.43
2022-08-17T08:08:32.934Z,5.20
2022-08-17T08:11:08.467Z,5.47
2022-08-17T08:13:45.227Z,5.23
2022-08-17T08:17:21.353Z,5.50
2022-08-17T08:19:51.739Z,5.10
2022-08-17T08:22:29.677Z,4.97
2022-08-17T08:25:18.918Z,5.07
2022-08-17T08:28:31.803Z,5.23
2022-08-17T08:31:09.708Z,5.07
2022-08-17T08:33:51.909Z,4.80
2022-08-17T08:37:02.125Z,4.60
2022-08-17T08:39:36.433Z,4.80
2022-08-17T08:42:14.309Z,4.27
2022-08-17T08:45:01.177Z,4.30
2022-08-17T08:47:57.452Z,4.60
2022-08-17T08:50:47.521Z,4.43
2022-08-17T08:53:25.498Z,4.73
2022-08-17T08:55:57.288Z,4.17
2022-08-17T08:58:41.866Z,4.37
2022-08-17T09:01:19.940Z,3.60
2022-08-17T09:04:21.408Z,3.40
2022-08-17T09:07:03.821Z,3.67
2022-08-17T09:09:50.774Z,3.90
2022-08-17T09:12:26.399Z,3.43
2022-08-17T09:15:02.683Z,3.43
2022-08-17T09:17:39.726Z,3.60
2022-08-17T09:20:28.387Z,3.87
2022-08-17T09:23:02.971Z,3.30
2022-08-17T09:25:35.769Z,3.80
2022-08-17T09:28:07.724Z,3.58
2022-08-17T09:30:42.776Z,3.67
2022-08-17T09:33:14.054Z,3.90
2022-08-17T09:35:46.039Z,3.87
2022-08-17T09:38:30.319Z,3.30
2022-08-17T09:41:10.895Z,3.30
2022-08-17T09:43:43.906Z,3.53
2022-08-17T09:46:19.539Z,3.97
2022-08-17T09:48:55.752Z,3.87
2022-08-17T09:51:31.632Z,3.65
2022-08-17T09:54:21.029Z,3.73
2022-08-17T09:57:25.935Z,3.83
2022-08-17T10:00:00.470Z,4.05
2022-08-17T10:02:51.296Z,3.57
2022-08-17T10:05:25.501Z,3.63
2022-08-17T10:08:02.168Z,3.93
2022-08-17T10:10:38.230Z,3.77
2022-08-17T10:13:19.349Z,3.80
2022-08-17T10:15:58.844Z,3.03
2022-08-17T10:18:39.976Z,3.15
2022-08-17T10:21:29.043Z,3.53
2022-08-17T10:24:24.748Z,3.72
2022-08-17T10:26:57.516Z,3.55
2022-08-17T10:29:49.666Z,3.87
2022-08-17T10:32:32.652Z,3.45
2022-08-17T10:35:30.341Z,4.00
2022-08-17T10:38:31.973Z,3.40
2022-08-17T10:41:08.130Z,3.45
2022-08-17T10:44:39.482Z,4.13
2022-08-17T10:46:57.836Z,3.90
2022-08-17T10:49:35.103Z,3.97
2022-08-17T10:52:05.871Z,3.80
2022-08-17T10:54:48.293Z,3.80
2022-08-17T10:57:40.754Z,4.20
2022-08-17T11:00:16.044Z,3.77
2022-08-17T11:02:50.509Z,3.80
2022-08-17T11:05:54.129Z,4.30
2022-08-17T11:08:56.647Z,3.77
2022-08-17T11:11:47.550Z,3.75
2022-08-17T11:14:29.785Z,4.10
2022-08-17T11:17:16.878Z,3.65
2022-08-17T11:20:13.921Z,3.85
2022-08-17T11:23:10.195Z,3.58
2022-08-17T11:25:41.372Z,3.80
2022-08-17T11:28:18.106Z,3.50
2022-08-17T11:30:52.895Z,3.45
2022-08-17T11:33:57.824Z,3.83
2022-08-17T11:37:10.424Z,3.67
2022-08-17T11:40:06.518Z,4.13
2022-08-17T11:43:09.451Z,4.03
2022-08-17T11:46:02.312Z,3.80
2022-08-17T11:48:56.743Z,4.22
2022-08-17T11:51:45.609Z,4.28
2022-08-17T11:54:39.940Z,4.60
2022-08-17T11:57:40.962Z,5.28
2022-08-17T12:00:25.825Z,4.78
2022-08-17T12:03:26.586Z,5.57
2022-08-17T12:06:05.410Z,4.90
2022-08-17T12:08:35.233Z,5.38
2022-08-17T12:11:08.247Z,4.95
2022-08-17T12:13:44.708Z,4.90
2022-08-17T12:16:16.616Z,4.90
2022-08-17T12:18:54.079Z,5.57
2022-08-17T12:21:36.875Z,5.18
2022-08-17T12:24:14.669Z,5.53
2022-08-17T12:26:45.232Z,4.35
2022-08-17T12:29:18.395Z,5.10
2022-08-17T12:32:06.975Z,4.78
2022-08-17T12:34:41.759Z,4.97
2022-08-17T12:37:18.605Z,4.80
2022-08-17T12:39:53.799Z,4.57
2022-08-17T12:42:29.601Z,4.30
2022-08-17T12:44:57.980Z,4.82
2022-08-17T12:47:29.494Z,4.82
2022-08-17T12:50:29.426Z,4.32
2022-08-17T12:53:01.908Z,4.97
2022-08-17T12:55:36.282Z,4.47
2022-08-17T12:58:05.346Z,4.28
2022-08-17T13:00:38.157Z,4.20
2022-08-17T13:03:09.722Z,4.45
2022-08-17T13:05:54.924Z,5.25
2022-08-17T13:08:28.487Z,4.30
2022-08-17T13:10:57.924Z,4.10
2022-08-17T13:13:27.528Z,4.00
2022-08-17T13:15:58.413Z,4.35
2022-08-17T13:18:43.003Z,4.03
2022-08-17T13:21:23.548Z,4.10
2022-08-17T13:24:04.402Z,4.00
2022-08-17T13:26:36.753Z,4.10
2022-08-17T13:29:11.176Z,3.90
2022-08-17T13:31:52.108Z,4.18
2022-08-17T13:34:36.939Z,4.00
2022-08-17T13:37:33.706Z,4.13
2022-08-17T13:40:27.165Z,3.95
2022-08-17T13:42:57.074Z,4.38
2022-08-17T13:45:39.324Z,4.90
2022-08-17T13:48:14.544Z,4.60
2022-08-17T13:50:47.452Z,4.40
2022-08-17T13:53:24.684Z,4.80
2022-08-17T13:55:56.210Z,4.40
2022-08-17T13:58:27.748Z,4.57
2022-08-17T14:00:56.493Z,4.45
2022-08-17T14:03:28.184Z,4.30
2022-08-17T14:06:51.540Z,4.00
2022-08-17T14:12:19.041Z,3.65
2022-08-17T14:14:51.720Z,4.25
2022-08-17T14:17:20.388Z,4.88
2022-08-17T14:19:48.629Z,4.72
2022-08-17T14:22:20.868Z,4.32
2022-08-17T14:24:51.331Z,4.97
2022-08-17T14:27:20.784Z,4.88
2022-08-17T14:29:49.882Z,5.82
2022-08-17T14:32:23.857Z,4.63
2022-08-17T14:35:01.836Z,4.72
2022-08-17T14:37:30.717Z,5.13
2022-08-17T14:40:02.672Z,4.75
2022-08-17T14:42:34.093Z,5.00
2022-08-17T14:45:06.180Z,4.88
2022-08-17T14:47:54.232Z,4.57
2022-08-17T14:50:23.968Z,4.65
2022-08-17T14:53:01.550Z,4.80
2022-08-17T14:55:32.609Z,4.50
2022-08-17T14:58:01.021Z,4.60
2022-08-17T15:00:29.522Z,3.60
2022-08-17T15:03:00.360Z,3.78
2022-08-17T15:05:32.465Z,4.00
2022-08-17T15:08:01.204Z,4.07
2022-08-17T15:10:32.700Z,3.85
2022-08-17T15:13:01.270Z,4.00
2022-08-17T15:15:30.430Z,3.58
2022-08-17T15:17:59.924Z,3.85
2022-08-17T15:20:30.303Z,4.38
2022-08-17T15:22:59.389Z,3.78
2022-08-17T15:25:31.887Z,3.70
2022-08-17T15:28:01.246Z,4.25
2022-08-17T15:30:30.436Z,3.60
2022-08-17T15:33:00.553Z,3.70
2022-08-17T15:35:30.725Z,3.65
2022-08-17T15:38:08.088Z,3.55
2022-08-17T15:40:42.915Z,3.25
2022-08-17T15:43:14.502Z,2.97
2022-08-17T15:45:42.778Z,3.50
2022-08-17T15:48:14.285Z,3.40
2022-08-17T15:50:42.798Z,3.33
2022-08-17T15:53:10.933Z,3.60
2022-08-17T15:55:44.058Z,3.38
2022-08-17T15:58:12.184Z,2.63
2022-08-17T16:00:48.282Z,2.70
2022-08-17T16:03:57.349Z,2.75
2022-08-17T16:06:09.995Z,2.92
2022-08-17T16:08:41.626Z,2.80
2022-08-17T16:11:12.203Z,3.00
2022-08-17T16:13:41.641Z,3.05
2022-08-17T16:16:11.812Z,3.05
2022-08-17T16:18:40.545Z,2.90
2022-08-17T16:21:31.283Z,3.53
2022-08-17T16:24:12.750Z,3.15
2022-08-17T16:26:46.666Z,3.40
2022-08-17T16:29:14.825Z,3.25
2022-08-17T16:32:04.882Z,3.13
2022-08-17T16:34:34.351Z,3.10
2022-08-17T16:37:05.428Z,3.17
2022-08-17T16:39:34.451Z,3.65
2022-08-17T16:42:05.048Z,3.72
2022-08-17T16:44:33.449Z,3.72
2022-08-17T16:47:04.239Z,3.63
2022-08-17T16:49:37.743Z,3.80
2022-08-17T16:52:13.235Z,3.60
2022-08-17T16:54:48.678Z,3.38
2022-08-17T16:57:19.657Z,3.45
2022-08-17T16:59:50.237Z,3.80
2022-08-17T17:02:42.170Z,3.45
2022-08-17T17:05:27.354Z,3.40
2022-08-17T17:08:04.035Z,4.00
2022-08-17T17:10:38.769Z,3.45
2022-08-17T17:13:12.333Z,2.90
2022-08-17T17:15:51.786Z,3.55
2022-08-17T17:18:24.301Z,3.20
2022-08-17T17:20:57.549Z,3.40
2022-08-17T17:23:42.376Z,3.28
2022-08-17T17:26:33.027Z,3.40
2022-08-17T17:29:19.521Z,3.65
2022-08-17T17:31:56.222Z,3.65
2022-08-17T17:34:30.111Z,3.40
2022-08-17T17:37:03.404Z,3.80
2022-08-17T17:39:43.865Z,4.10
2022-08-17T17:42:20.146Z,4.33
2022-08-17T17:44:54.942Z,4.20
2022-08-17T17:47:23.438Z,4.17
2022-08-17T17:49:51.697Z,4.20
2022-08-17T17:52:28.414Z,4.57
2022-08-17T17:55:13.186Z,4.63
2022-08-17T17:57:50.287Z,4.37
2022-08-17T18:00:24.339Z,4.17
2022-08-17T18:03:08.599Z,4.27
2022-08-17T18:06:05.141Z,4.50
2022-08-17T18:08:49.448Z,4.20
2022-08-17T18:11:43.854Z,4.17
2022-08-17T18:14:49.281Z,4.23
2022-08-17T18:17:20.463Z,4.50
2022-08-17T18:19:48.507Z,4.33
2022-08-17T18:22:19.118Z,4.77
2022-08-17T18:24:48.846Z,5.07
2022-08-17T18:27:24.342Z,4.07
2022-08-17T18:29:54.133Z,4.73
2022-08-17T18:32:35.768Z,4.10
2022-08-17T18:35:35.067Z,4.10
2022-08-17T18:38:24.027Z,3.90
2022-08-17T18:41:01.214Z,3.60
2022-08-17T18:43:44.104Z,3.77
2022-08-17T18:46:28.308Z,3.80
2022-08-17T18:49:01.606Z,3.50
2022-08-17T18:51:42.169Z,3.80
2022-08-17T18:57:34.697Z,3.73
2022-08-17T19:00:11.106Z,3.63
2022-08-17T19:02:52.150Z,3.90
2022-08-17T19:05:36.622Z,3.80
2022-08-17T19:08:23.641Z,4.00
2022-08-17T19:10:55.179Z,3.93
2022-08-17T19:13:27.124Z,4.33
2022-08-17T19:16:11.466Z,4.63
2022-08-17T19:18:49.420Z,4.40
2022-08-17T19:21:24.127Z,4.17
2022-08-17T19:23:58.700Z,4.33
2022-08-17T19:26:50.782Z,3.83
2022-08-17T19:29:23.548Z,3.73
2022-08-17T19:31:52.909Z,4.00
2022-08-17T19:34:33.745Z,4.33
2022-08-17T19:37:11.749Z,3.60
2022-08-17T19:39:50.257Z,4.33
2022-08-17T19:42:31.163Z,4.33
2022-08-17T19:45:10.078Z,4.07
2022-08-17T19:48:02.888Z,4.07
2022-08-17T19:50:39.186Z,4.23
2022-08-17T19:53:20.842Z,4.03
2022-08-17T19:55:58.488Z,4.27
2022-08-17T19:58:51.603Z,4.90
2022-08-17T20:01:33.966Z,4.73
2022-08-17T20:04:11.501Z,3.87
2022-08-17T20:06:44.934Z,4.43
2022-08-17T20:09:33.752Z,4.03
2022-08-17T20:12:07.227Z,4.07
2022-08-17T20:14:41.340Z,4.93
2022-08-17T20:17:23.344Z,4.50
2022-08-17T20:20:00.228Z,5.27
2022-08-17T20:22:36.820Z,4.80
2022-08-17T20:25:30.592Z,5.27
2022-08-17T20:28:05.728Z,3.87
2022-08-17T20:30:38.828Z,5.30
2022-08-17T20:33:12.437Z,4.90
2022-08-17T20:36:00.744Z,3.97
2022-08-17T20:38:42.183Z,5.47
2022-08-17T20:41:17.244Z,4.60
2022-08-17T20:44:05.345Z,4.47
2022-08-17T20:47:02.573Z,4.00
2022-08-17T20:49:53.769Z,5.37
2022-08-17T20:52:48.603Z,3.67
2022-08-17T20:55:52.377Z,4.20
2022-08-17T20:58:48.265Z,3.63
2022-08-17T21:01:24.422Z,3.93
2022-08-17T21:03:54.366Z,5.50
2022-08-17T21:06:25.498Z,4.63
2022-08-17T21:08:59.663Z,4.60
2022-08-17T21:12:03.306Z,5.60
2022-08-17T21:14:59.790Z,4.33
2022-08-17T21:17:41.987Z,4.30
2022-08-17T21:20:25.930Z,4.93
2022-08-17T21:23:13.717Z,4.00
2022-08-17T21:26:02.588Z,4.20
2022-08-17T21:29:00.311Z,4.23
2022-08-17T21:31:35.639Z,3.77
2022-08-17T21:34:27.744Z,4.47
2022-08-17T21:36:56.853Z,3.67
2022-08-17T21:39:34.621Z,4.37
2022-08-17T21:42:03.505Z,3.90
2022-08-17T21:44:35.027Z,4.43
2022-08-17T21:47:23.896Z,4.33
2022-08-17T21:49:52.292Z,4.10
2022-08-17T21:52:23.748Z,4.13
2022-08-17T21:54:54.642Z,4.37
2022-08-17T21:57:27.399Z,4.10
2022-08-17T21:59:58.462Z,4.37
2022-08-17T22:02:32.158Z,4.13
2022-08-17T22:05:03.083Z,4.10
2022-08-17T22:07:42.177Z,4.07
2022-08-17T22:10:30.632Z,4.63
2022-08-17T22:13:16.743Z,4.57
2022-08-17T22:15:47.977Z,4.20
2022-08-17T22:18:22.811Z,4.00
2022-08-17T22:20:52.759Z,4.30
2022-08-17T22:23:45.451Z,3.67
2022-08-17T22:26:17.024Z,4.53
2022-08-17T22:28:48.917Z,4.30
2022-08-17T22:31:18.818Z,4.27
2022-08-17T22:33:50.814Z,3.90
2022-08-17T22:36:25.710Z,3.83
2022-08-17T22:38:55.936Z,3.80
2022-08-17T22:41:34.807Z,5.10
2022-08-17T22:44:23.276Z,3.87
2022-08-17T22:46:59.145Z,4.23
2022-08-17T22:49:33.053Z,4.57
2022-08-17T22:52:23.353Z,4.63
2022-08-17T22:55:36.636Z,4.73
2022-08-17T22:58:29.288Z,4.77
2022-08-17T23:00:57.459Z,4.10
2022-08-17T23:03:28.022Z,4.57
2022-08-17T23:06:08.048Z,4.00
2022-08-17T23:08:43.649Z,4.30
2022-08-17T23:11:11.789Z,4.17
2022-08-17T23:13:40.394Z,4.47
2022-08-17T23:16:09.646Z,4.47
2022-08-17T23:18:37.931Z,5.20
2022-08-17T23:21:07.801Z,4.93
2022-08-17T23:23:37.146Z,5.23
2022-08-17T23:26:11.326Z,4.27
2022-08-17T23:28:41.101Z,5.10
2022-08-17T23:31:09.805Z,6.00
2022-08-17T23:33:39.495Z,4.37
2022-08-17T23:36:15.109Z,3.70
2022-08-17T23:38:44.730Z,4.07
2022-08-17T23:41:18.411Z,4.57
2022-08-17T23:43:48.937Z,3.70
2022-08-17T23:46:17.603Z,4.47
2022-08-17T23:48:45.982Z,4.80
2022-08-17T23:51:19.560Z,5.10
2022-08-17T23:53:52.186Z,4.70
2022-08-17T23:56:23.807Z,4.07
2022-08-17T23:58:51.984Z,5.40
